Time;durP1;ratioP1;P1;durP2;ratioP2;P2;SDS_P1;SDS_P2;PMS_P1;PMS_P2;Temp;Humidity;BMP_temperature;BMP_pressure;BME280_temperature;BME280_humidity;BME280_pressure;Samples;Min_cycle;Max_cycle;Signal;HPM_P1;HPM_P2
2024/04/16 00:00:25;;;;;;;;;;;;;;;16.93;47.71;99945.47;5351000;26;2884;-58
2024/04/16 00:02:50;;;;;;;;;;;;;;;16.71;47.11;99940.53;5351495;26;1354;-56
2024/04/16 00:05:16;;;;;;;;;;;;;;;16.79;46.88;99943.72;5351296;26;1275;-57
2024/04/16 00:07:42;;;;;;;;;;;;;;;17.17;47.60;99941.84;5350231;26;1248;-58
2024/04/16 00:10:07;;;;;;;;;;;;;;;16.85;47.48;99939.81;5350466;26;1335;-53
2024/04/16 00:12:33;;;;;;;;;;;;;;;16.69;46.81;99937.28;5350035;26;1164;-53
2024/04/16 00:15:24;;;;;;;;;;;;;;;16.67;46.14;99936.72;5322944;26;1243;-53
2024/04/16 00:17:51;;;;;;;;;;;;;;;16.51;46.02;99944.34;5340346;26;1411;-55
2024/04/16 00:20:17;;;;;;;;;;;;;;;16.47;45.67;99942.50;5348190;26;1838;-55
2024/04/16 00:22:43;;;;;;;;;;;;;;;17.49;46.74;99933.91;5350249;26;1216;-53
2024/04/16 00:25:08;;;;;;;;;;;;;;;17.25;47.80;99940.34;5319883;26;1306;-54
2024/04/16 00:27:34;;;;;;;;;;;;;;;16.93;47.40;99933.69;5319514;26;1288;-54
2024/04/16 00:29:59;;;;;;;;;;;;;;;16.79;46.94;99943.72;5350494;26;2751;-53
2024/04/16 00:32:25;;;;;;;;;;;;;;;16.72;46.41;99938.63;5349592;26;1522;-55
2024/04/16 00:34:51;;;;;;;;;;;;;;;17.53;46.98;99929.44;5350176;26;1258;-55
2024/04/16 00:37:17;;;;;;;;;;;;;;;16.99;47.46;99931.69;5349891;26;1224;-55
2024/04/16 00:39:42;;;;;;;;;;;;;;;16.89;46.84;99932.66;5349995;26;1855;-53
2024/04/16 00:42:08;;;;;;;;;;;;;;;16.64;46.61;99920.84;5350102;26;1274;-54
2024/04/16 00:44:34;;;;;;;;;;;;;;;16.58;46.15;99916.56;5349277;26;1056;-54
2024/04/16 00:46:59;;;;;;;;;;;;;;;17.00;46.27;99911.31;5313654;27;1295;-53
2024/04/16 00:49:25;;;;;;;;;;;;;;;17.26;47.31;99911.75;5335487;26;1373;-54
2024/04/16 00:51:51;;;;;;;;;;;;;;;16.87;47.08;99908.19;5349711;26;1333;-55
2024/04/16 00:54:17;;;;;;;;;;;;;;;18.06;47.20;99892.50;5350137;26;1143;-53
2024/04/16 00:56:42;;;;;;;;;;;;;;;17.16;48.34;99895.44;5349186;26;1226;-55
2024/04/16 00:59:08;;;;;;;;;;;;;;;17.01;47.47;99891.81;5319076;26;2786;-55
2024/04/16 01:01:35;;;;;;;;;;;;;;;16.90;46.66;99895.81;5349189;26;1220;-52
2024/04/16 01:04:01;;;;;;;;;;;;;;;16.81;46.46;99897.59;5349505;26;1271;-55
2024/04/16 01:06:26;;;;;;;;;;;;;;;16.60;46.19;99892.38;5349420;26;1123;-55
2024/04/16 01:08:52;;;;;;;;;;;;;;;16.62;45.77;99890.16;5349171;26;1122;-55
2024/04/16 01:11:25;;;;;;;;;;;;;;;16.52;45.60;99873.81;5349508;26;1164;-55
2024/04/16 01:13:51;;;;;;;;;;;;;;;16.83;45.79;99884.34;5349449;26;1242;-55
2024/04/16 01:16:16;;;;;;;;;;;;;;;17.36;47.53;99880.53;5349235;26;1125;-55
2024/04/16 01:18:42;;;;;;;;;;;;;;;16.97;47.35;99881.72;5318865;26;1822;-52
2024/04/16 01:21:07;;;;;;;;;;;;;;;16.73;46.95;99875.19;5349170;26;1179;-54
2024/04/16 01:23:33;;;;;;;;;;;;;;;16.64;46.52;99874.19;5349734;26;1211;-56
2024/04/16 01:25:58;;;;;;;;;;;;;;;16.65;45.88;99867.59;5349274;26;1117;-54
2024/04/16 01:28:24;;;;;;;;;;;;;;;17.66;46.77;99868.22;5349287;26;1286;-54
2024/04/16 01:30:49;;;;;;;;;;;;;;;17.02;47.34;99865.97;5349569;26;2758;-54
2024/04/16 01:33:15;;;;;;;;;;;;;;;16.73;47.27;99864.19;5349623;26;1070;-51
2024/04/16 01:35:41;;;;;;;;;;;;;;;16.72;46.49;99870.78;5349289;26;1321;-55
2024/04/16 01:38:06;;;;;;;;;;;;;;;16.63;46.10;99869.81;5349311;26;1826;-54
2024/04/16 01:40:32;;;;;;;;;;;;;;;17.53;47.01;99863.47;5348809;26;1117;-56
2024/04/16 01:42:57;;;;;;;;;;;;;;;16.95;47.49;99854.56;5349048;26;1133;-53
2024/04/16 01:45:23;;;;;;;;;;;;;;;16.82;46.84;99852.53;5348845;26;1088;-55
2024/04/16 01:47:48;;;;;;;;;;;;;;;16.67;46.65;99854.38;5349184;26;1315;-54
2024/04/16 01:50:14;;;;;;;;;;;;;;;16.68;46.01;99852.47;5348985;26;1234;-55
2024/04/16 01:52:39;;;;;;;;;;;;;;;17.95;46.74;99847.91;5349593;26;1267;-51
2024/04/16 01:55:05;;;;;;;;;;;;;;;17.06;48.25;99845.03;5346957;26;1172;-54
2024/04/16 01:57:31;;;;;;;;;;;;;;;16.93;47.40;99852.09;5348198;26;1095;-55
2024/04/16 01:59:56;;;;;;;;;;;;;;;16.91;46.63;99837.03;5348784;26;2788;-52
2024/04/16 02:02:22;;;;;;;;;;;;;;;16.76;46.32;99838.09;5348513;26;1133;-50
2024/04/16 02:04:48;;;;;;;;;;;;;;;16.69;45.95;99838.44;5348520;26;1073;-50
2024/04/16 02:07:13;;;;;;;;;;;;;;;17.90;46.88;99842.47;5348551;26;1176;-53
2024/04/16 02:09:39;;;;;;;;;;;;;;;17.09;47.57;99836.19;5347552;26;1133;-56
2024/04/16 02:12:04;;;;;;;;;;;;;;;16.90;47.41;99836.25;5348506;26;1129;-54
2024/04/16 02:14:30;;;;;;;;;;;;;;;16.75;46.71;99842.75;5348417;26;1224;-55
2024/04/16 02:16:56;;;;;;;;;;;;;;;17.29;46.90;99839.72;5351973;26;1161;-56
2024/04/16 02:19:22;;;;;;;;;;;;;;;17.22;47.82;99840.13;5351406;26;1817;-55
2024/04/16 02:21:47;;;;;;;;;;;;;;;16.85;47.65;99838.22;5351721;26;1076;-56
2024/04/16 02:24:13;;;;;;;;;;;;;;;16.87;46.87;99842.31;5351765;26;1113;-54
2024/04/16 02:26:39;;;;;;;;;;;;;;;16.75;46.51;99840.00;5351403;26;1167;-55
2024/04/16 02:29:04;;;;;;;;;;;;;;;16.74;45.95;99848.53;5351507;26;2745;-54
2024/04/16 02:31:30;;;;;;;;;;;;;;;16.68;45.84;99855.22;5351519;26;1195;-55
2024/04/16 02:33:56;;;;;;;;;;;;;;;16.66;45.62;99857.44;5351682;26;1299;-54
2024/04/16 02:36:21;;;;;;;;;;;;;;;17.60;46.29;99855.69;5351765;26;1345;-54
2024/04/16 02:38:47;;;;;;;;;;;;;;;16.95;47.04;99865.53;5351760;26;1825;-54
2024/04/16 02:41:15;;;;;;;;;;;;;;;16.76;46.74;99858.09;5351600;26;1255;-54
2024/04/16 02:43:41;;;;;;;;;;;;;;;16.73;46.21;99866.09;5351088;26;1136;-51
2024/04/16 02:46:06;;;;;;;;;;;;;;;16.64;46.15;99865.16;5351784;26;1180;-51
2024/04/16 02:48:32;;;;;;;;;;;;;;;16.57;45.79;99868.25;5351493;26;1129;-52
2024/04/16 02:50:58;;;;;;;;;;;;;;;16.53;45.55;99864.47;5351780;26;1264;-53
2024/04/16 02:53:23;;;;;;;;;;;;;;;17.45;46.38;99874.06;5351528;26;1109;-54
2024/04/16 02:55:49;;;;;;;;;;;;;;;16.95;47.26;99878.47;5351240;26;1310;-54
2024/04/16 02:58:14;;;;;;;;;;;;;;;16.84;46.76;99877.75;5351392;26;1826;-54
2024/04/16 03:00:40;;;;;;;;;;;;;;;16.75;46.23;99883.91;5351204;26;3019;-55
2024/04/16 03:03:05;;;;;;;;;;;;;;;16.64;46.02;99881.63;5351833;26;1279;-55
2024/04/16 03:05:31;;;;;;;;;;;;;;;16.54;45.77;99896.31;5351301;26;1180;-53
2024/04/16 03:07:57;;;;;;;;;;;;;;;16.47;45.66;99898.59;5351690;26;1274;-54
2024/04/16 03:10:22;;;;;;;;;;;;;;;16.39;45.61;99892.63;5351639;26;1433;-54
2024/04/16 03:12:50;;;;;;;;;;;;;;;17.50;46.31;99888.81;5350719;26;1745;-56
2024/04/16 03:15:15;;;;;;;;;;;;;;;17.08;47.72;99881.28;5351191;26;1262;-58
2024/04/16 03:17:41;;;;;;;;;;;;;;;16.73;47.59;99886.16;5350671;26;1561;-55
2024/04/16 03:20:07;;;;;;;;;;;;;;;16.70;46.96;99886.72;5350980;26;1826;-55
2024/04/16 03:22:32;;;;;;;;;;;;;;;16.62;46.51;99883.84;5351116;26;1366;-55
2024/04/16 03:24:58;;;;;;;;;;;;;;;16.60;46.07;99884.13;5351148;26;1153;-57
2024/04/16 03:27:24;;;;;;;;;;;;;;;17.68;46.50;99887.16;5350587;26;1215;-55
2024/04/16 03:29:49;;;;;;;;;;;;;;;16.89;47.67;99894.19;5351230;26;2788;-55
2024/04/16 03:32:15;;;;;;;;;;;;;;;16.78;47.11;99888.00;5350997;26;1170;-54
2024/04/16 03:34:40;;;;;;;;;;;;;;;17.47;47.23;99895.75;5350825;26;1255;-52
2024/04/16 03:37:06;;;;;;;;;;;;;;;17.09;47.93;99893.06;5350839;26;1160;-51
2024/04/16 03:39:31;;;;;;;;;;;;;;;16.81;47.56;99892.91;5351011;26;1858;-53
2024/04/16 03:41:57;;;;;;;;;;;;;;;16.80;46.79;99899.50;5350891;26;1291;-56
2024/04/16 03:44:23;;;;;;;;;;;;;;;16.61;46.53;99894.00;5350307;26;1184;-55
2024/04/16 03:46:48;;;;;;;;;;;;;;;16.68;45.77;99899.94;5350658;26;1289;-55
2024/04/16 03:49:14;;;;;;;;;;;;;;;16.56;45.58;99897.66;5350991;26;1347;-53
2024/04/16 03:51:39;;;;;;;;;;;;;;;16.50;45.56;99890.56;5350505;26;1252;-53
2024/04/16 03:54:05;;;;;;;;;;;;;;;16.49;45.13;99888.94;5319890;26;1282;-52
2024/04/16 03:56:30;;;;;;;;;;;;;;;16.57;45.56;99887.47;5348310;26;1367;-52
2024/04/16 04:01:40;;;;;;;;;;;;;;;16.39;45.15;99898.09;5349298;26;1177;-48
2024/04/16 04:04:06;;;;;;;;;;;;;;;17.45;46.35;99896.03;5351147;26;1256;-52
2024/04/16 04:06:31;;;;;;;;;;;;;;;16.65;48.17;99888.72;5350905;26;1302;-55
2024/04/16 04:08:57;;;;;;;;;;;;;;;16.92;48.28;99893.59;5350512;26;1136;-54
2024/04/16 04:11:23;;;;;;;;;;;;;;;16.82;48.44;99902.78;5350370;26;1265;-53
2024/04/16 04:13:48;;;;;;;;;;;;;;;16.74;48.71;99904.25;5350932;26;1120;-52
2024/04/16 04:16:14;;;;;;;;;;;;;;;16.62;49.03;99903.88;5351162;26;1131;-56
2024/04/16 04:18:39;;;;;;;;;;;;;;;16.49;49.39;99907.34;5350433;26;1856;-54
2024/04/16 04:21:06;;;;;;;;;;;;;;;16.42;49.78;99908.53;5350424;26;1282;-53
2024/04/16 04:23:32;;;;;;;;;;;;;;;16.38;49.79;99901.16;5350463;26;1330;-51
2024/04/16 04:25:58;;;;;;;;;;;;;;;16.37;49.87;99907.78;5348759;26;1130;-50
2024/04/16 04:28:24;;;;;;;;;;;;;;;16.27;50.42;99921.59;5350130;26;1346;-54
2024/04/16 04:30:51;;;;;;;;;;;;;;;16.22;50.31;99919.72;5331142;26;2236;-46
2024/04/16 04:33:16;;;;;;;;;;;;;;;16.21;50.54;99920.84;5350352;26;1131;-51
2024/04/16 04:35:42;;;;;;;;;;;;;;;16.14;50.79;99917.63;5350031;26;1193;-51
2024/04/16 04:38:08;;;;;;;;;;;;;;;16.08;50.80;99927.84;5349036;26;1888;-54
2024/04/16 04:40:34;;;;;;;;;;;;;;;15.98;51.24;99928.75;5319558;26;1138;-54
2024/04/16 04:43:00;;;;;;;;;;;;;;;17.23;48.33;99935.13;5319140;26;1228;-53
2024/04/16 04:45:26;;;;;;;;;;;;;;;17.19;48.36;99944.28;5349074;26;1223;-51
2024/04/16 04:47:51;;;;;;;;;;;;;;;16.69;49.81;99939.19;5349090;26;1569;-52
2024/04/16 04:50:17;;;;;;;;;;;;;;;16.43;50.39;99950.50;5347165;26;1284;-51
2024/04/16 04:52:42;;;;;;;;;;;;;;;16.33;50.81;99948.69;5347420;26;1101;-52
2024/04/16 04:55:08;;;;;;;;;;;;;;;16.24;50.99;99943.03;5346599;26;1208;-52
2024/04/16 04:57:34;;;;;;;;;;;;;;;16.12;51.34;99958.22;5348913;26;1354;-53
2024/04/16 04:59:59;;;;;;;;;;;;;;;16.08;51.53;99961.56;5333415;26;2784;-53
2024/04/16 05:02:25;;;;;;;;;;;;;;;16.03;51.71;99956.16;5342129;26;1193;-49
2024/04/16 05:04:50;;;;;;;;;;;;;;;16.54;50.66;99954.75;5349496;26;1171;-55
2024/04/16 05:07:16;;;;;;;;;;;;;;;17.79;47.62;99949.09;5349189;26;1219;-52
2024/04/16 05:09:41;;;;;;;;;;;;;;;17.03;49.48;99947.25;5348960;26;1313;-51
2024/04/16 05:12:07;;;;;;;;;;;;;;;16.68;50.52;99960.34;5349815;26;1228;-56
2024/04/16 05:14:33;;;;;;;;;;;;;;;16.50;51.08;99955.63;5349610;26;1313;-53
2024/04/16 05:16:58;;;;;;;;;;;;;;;16.34;51.54;99953.06;5349274;26;1071;-52
2024/04/16 05:19:24;;;;;;;;;;;;;;;16.26;51.60;99953.72;5348909;26;1826;-53
2024/04/16 05:21:49;;;;;;;;;;;;;;;16.18;51.92;99957.09;5349343;26;1251;-54
2024/04/16 05:24:15;;;;;;;;;;;;;;;16.14;52.03;99948.59;5349304;26;1208;-54
2024/04/16 05:26:43;;;;;;;;;;;;;;;16.06;52.22;99954.72;5348862;26;1289;-51
2024/04/16 05:29:09;;;;;;;;;;;;;;;16.02;52.39;99949.00;5352717;26;2154;-52
2024/04/16 05:31:35;;;;;;;;;;;;;;;16.51;51.61;99951.75;5365317;26;1230;-52
2024/04/16 05:34:00;;;;;;;;;;;;;;;17.82;48.22;99948.47;5348974;26;1254;-54
2024/04/16 05:36:26;;;;;;;;;;;;;;;16.94;50.26;99951.78;5343867;26;1258;-54
2024/04/16 05:38:51;;;;;;;;;;;;;;;16.69;51.05;99948.25;5334644;26;1865;-52
2024/04/16 05:41:17;;;;;;;;;;;;;;;16.42;51.80;99946.94;5333309;26;1355;-50
2024/04/16 05:43:43;;;;;;;;;;;;;;;16.38;52.12;99961.50;5336340;26;1327;-54
2024/04/16 05:46:08;;;;;;;;;;;;;;;16.25;52.21;99952.06;5334118;26;1304;-51
2024/04/16 05:48:34;;;;;;;;;;;;;;;16.16;52.45;99951.06;5333941;26;1630;-54
2024/04/16 05:50:59;;;;;;;;;;;;;;;16.18;52.44;99952.41;5341281;26;1445;-53
2024/04/16 05:53:25;;;;;;;;;;;;;;;16.11;52.74;99954.69;5333885;26;1388;-50
2024/04/16 05:55:51;;;;;;;;;;;;;;;17.43;49.76;99953.25;5335270;26;1446;-52
2024/04/16 05:58:17;;;;;;;;;;;;;;;17.34;49.95;99954.25;5338404;26;1930;-53
2024/04/16 06:00:43;;;;;;;;;;;;;;;16.77;51.25;99953.09;5341762;26;2158;-48
2024/04/16 06:03:09;;;;;;;;;;;;;;;16.49;51.93;99960.28;5345699;26;1267;-49
2024/04/16 06:05:34;;;;;;;;;;;;;;;16.41;52.26;99953.53;5352461;26;1204;-51
2024/04/16 06:08:00;;;;;;;;;;;;;;;16.35;52.55;99962.09;5352399;26;1286;-53
2024/04/16 06:10:25;;;;;;;;;;;;;;;16.21;52.74;99957.31;5351617;26;1299;-54
2024/04/16 06:12:51;;;;;;;;;;;;;;;16.17;52.98;99960.94;5351720;26;1231;-53
2024/04/16 06:15:16;;;;;;;;;;;;;;;16.15;52.99;99963.97;5337435;26;1300;-53
2024/04/16 06:17:42;;;;;;;;;;;;;;;16.35;52.69;99967.59;5337832;26;1276;-52
2024/04/16 06:20:09;;;;;;;;;;;;;;;17.84;49.08;99967.41;5336051;26;1834;-51
2024/04/16 06:22:39;;;;;;;;;;;;;;;17.10;50.64;99961.44;5347320;26;1572;-52
2024/04/16 06:25:05;;;;;;;;;;;;;;;16.77;51.75;99958.56;5342322;26;1421;-51
2024/04/16 06:27:31;;;;;;;;;;;;;;;16.53;52.33;99957.78;5339511;26;1536;-53
2024/04/16 06:29:56;;;;;;;;;;;;;;;16.47;52.51;99956.22;5339388;26;2155;-51
2024/04/16 06:32:22;;;;;;;;;;;;;;;16.32;53.02;99962.69;5297480;27;1694;-50
2024/04/16 06:34:47;;;;;;;;;;;;;;;16.26;53.05;99953.72;5300149;26;1599;-53
2024/04/16 06:37:13;;;;;;;;;;;;;;;16.22;53.11;99958.13;5302148;27;1348;-52
2024/04/16 06:39:39;;;;;;;;;;;;;;;16.17;53.28;99955.44;5304672;26;1826;-50
2024/04/16 06:42:05;;;;;;;;;;;;;;;16.04;53.31;99941.31;5316638;26;1642;-49
2024/04/16 06:44:30;;;;;;;;;;;;;;;17.28;50.99;99950.75;5315428;26;1259;-50
2024/04/16 06:46:56;;;;;;;;;;;;;;;17.55;50.23;99938.22;5316787;26;971;-48
2024/04/16 06:49:21;;;;;;;;;;;;;;;16.89;51.79;99938.13;5310164;26;1512;-51
2024/04/16 06:51:47;;;;;;;;;;;;;;;16.61;52.59;99932.44;5312429;27;1331;-48
2024/04/16 06:54:13;;;;;;;;;;;;;;;16.53;52.87;99933.88;5317742;26;1259;-53
2024/04/16 06:56:39;;;;;;;;;;;;;;;16.39;53.16;99924.75;5314506;26;1638;-50
2024/04/16 06:59:05;;;;;;;;;;;;;;;16.33;53.43;99928.66;5308614;26;2368;-52
2024/04/16 07:01:31;;;;;;;;;;;;;;;16.32;53.30;99924.28;5307117;26;1245;-53
2024/04/16 07:03:59;;;;;;;;;;;;;;;16.21;53.23;99909.88;5315015;26;1192;-53
2024/04/16 07:06:25;;;;;;;;;;;;;;;16.12;53.67;99908.84;5314276;26;1322;-53
2024/04/16 07:08:51;;;;;;;;;;;;;;;16.07;53.85;99910.56;5313767;26;1234;-51
2024/04/16 07:11:16;;;;;;;;;;;;;;;17.46;51.04;99918.88;5314931;26;1265;-53
2024/04/16 07:13:44;;;;;;;;;;;;;;;17.45;50.58;99912.53;5316980;26;1290;-53
2024/04/16 07:16:09;;;;;;;;;;;;;;;16.81;52.55;99908.56;5317335;26;1197;-52
2024/04/16 07:18:35;;;;;;;;;;;;;;;16.63;53.03;99910.19;5316103;26;1859;-54
2024/04/16 07:21:00;;;;;;;;;;;;;;;16.54;53.19;99910.03;5316788;26;1176;-53
2024/04/16 07:23:26;;;;;;;;;;;;;;;16.40;53.50;99912.66;5315486;26;1626;-53
2024/04/16 07:25:51;;;;;;;;;;;;;;;16.37;53.53;99921.50;5316836;26;1250;-52
2024/04/16 07:28:17;;;;;;;;;;;;;;;16.32;53.53;99911.38;5316848;26;1277;-55
2024/04/16 07:30:45;;;;;;;;;;;;;;;16.19;53.84;99915.66;5292232;26;2799;-53
2024/04/16 07:33:11;;;;;;;;;;;;;;;16.12;53.95;99901.47;5317752;26;1144;-50
2024/04/16 07:35:37;;;;;;;;;;;;;;;16.93;52.67;99901.53;5346453;26;1114;-53
2024/04/16 07:38:02;;;;;;;;;;;;;;;17.56;50.74;99895.88;5351070;26;1223;-54
2024/04/16 07:40:28;;;;;;;;;;;;;;;16.89;52.65;99899.69;5350714;26;1881;-52
2024/04/16 07:42:53;;;;;;;;;;;;;;;16.63;53.01;99897.25;5351555;26;1270;-50
2024/04/16 07:45:19;;;;;;;;;;;;;;;16.49;53.63;99899.09;5350108;26;1255;-52
2024/04/16 07:47:44;;;;;;;;;;;;;;;16.42;53.87;99903.03;5349864;26;1388;-55
2024/04/16 07:50:10;;;;;;;;;;;;;;;16.35;53.87;99904.50;5350614;26;1283;-53
2024/04/16 07:52:35;;;;;;;;;;;;;;;16.21;54.23;99905.19;5350706;26;1299;-53
2024/04/16 07:55:01;;;;;;;;;;;;;;;16.21;54.26;99896.16;5350511;26;1136;-52
2024/04/16 07:57:27;;;;;;;;;;;;;;;16.15;54.30;99894.59;5350681;26;1212;-52
2024/04/16 07:59:52;;;;;;;;;;;;;;;16.12;54.40;99893.25;5336402;26;2893;-49
2024/04/16 08:02:18;;;;;;;;;;;;;;;16.13;54.32;99902.28;5342196;26;1128;-54
2024/04/16 08:04:43;;;;;;;;;;;;;;;16.70;53.55;99900.44;5350620;26;1263;-52
2024/04/16 08:07:09;;;;;;;;;;;;;;;17.96;50.53;99888.03;5350671;26;1144;-51
2024/04/16 08:09:34;;;;;;;;;;;;;;;17.23;52.17;99887.63;5350506;26;1320;-51
2024/04/16 08:12:00;;;;;;;;;;;;;;;16.82;53.46;99888.25;5349747;26;1045;-53
2024/04/16 08:14:26;;;;;;;;;;;;;;;16.65;53.50;99884.06;5349752;26;1201;-52
2024/04/16 08:16:51;;;;;;;;;;;;;;;16.56;53.99;99891.31;5348228;26;1825;-51
2024/04/16 08:19:18;;;;;;;;;;;;;;;16.45;54.20;99889.81;5349821;26;1883;-50
2024/04/16 08:21:44;;;;;;;;;;;;;;;16.40;54.36;99897.00;5351187;26;1176;-53
2024/04/16 08:24:09;;;;;;;;;;;;;;;16.37;54.31;99894.84;5328401;26;1275;-55
2024/04/16 08:26:35;;;;;;;;;;;;;;;16.23;54.63;99900.25;5350714;26;1255;-56
2024/04/16 08:29:00;;;;;;;;;;;;;;;16.18;54.79;99896.75;5348219;26;2836;-54
2024/04/16 08:31:26;;;;;;;;;;;;;;;16.16;54.57;99893.44;5333145;26;1061;-56
2024/04/16 08:33:52;;;;;;;;;;;;;;;16.14;54.67;99898.44;5349986;26;1262;-56
2024/04/16 08:36:17;;;;;;;;;;;;;;;16.13;54.69;99899.53;5349610;26;1052;-55
2024/04/16 08:38:43;;;;;;;;;;;;;;;16.60;54.17;99898.66;5349659;26;1850;-53
2024/04/16 08:41:08;;;;;;;;;;;;;;;17.68;51.60;99896.19;5349605;26;1224;-56
2024/04/16 08:43:34;;;;;;;;;;;;;;;16.99;53.44;99893.22;5349900;26;1226;-54
2024/04/16 08:46:00;;;;;;;;;;;;;;;16.67;54.20;99903.78;5348323;26;1296;-55
2024/04/16 08:48:26;;;;;;;;;;;;;;;16.52;54.52;99895.75;5338135;26;1191;-55
2024/04/16 08:50:52;;;;;;;;;;;;;;;16.43;54.60;99890.94;5314556;26;1408;-53
2024/04/16 08:53:17;;;;;;;;;;;;;;;16.44;54.68;99894.50;5305675;26;1312;-54
2024/04/16 08:55:43;;;;;;;;;;;;;;;16.31;54.75;99907.00;5305468;26;1249;-56
2024/04/16 08:58:08;;;;;;;;;;;;;;;16.25;54.71;99900.75;5335921;26;1826;-55
2024/04/16 09:00:34;;;;;;;;;;;;;;;16.21;54.94;99904.38;5309474;26;2293;-55
2024/04/16 09:03:00;;;;;;;;;;;;;;;16.17;54.89;99900.59;5334325;26;1304;-53
2024/04/16 09:05:25;;;;;;;;;;;;;;;16.16;54.94;99899.78;5303677;26;1618;-55
2024/04/16 09:07:51;;;;;;;;;;;;;;;16.11;55.12;99918.22;5306032;26;1285;-56
2024/04/16 09:10:21;;;;;;;;;;;;;;;16.12;54.97;99903.38;5337616;26;1288;-52
2024/04/16 09:12:47;;;;;;;;;;;;;;;16.08;55.04;99894.94;5335436;26;1242;-53
2024/04/16 09:15:13;;;;;;;;;;;;;;;17.07;53.68;99889.81;5334878;26;1333;-56
2024/04/16 09:17:48;;;;;;;;;;;;;;;17.66;52.12;99881.16;5330665;26;1531;-56
2024/04/16 09:20:15;;;;;;;;;;;;;;;16.96;53.98;99882.81;5343617;26;1830;-54
2024/04/16 09:22:40;;;;;;;;;;;;;;;16.70;54.61;99869.44;5347381;26;1258;-55
2024/04/16 09:25:07;;;;;;;;;;;;;;;16.63;54.77;99869.81;5352698;26;1409;-54
2024/04/16 09:27:32;;;;;;;;;;;;;;;16.59;54.67;99869.59;5355061;26;1584;-53
2024/04/16 09:30:08;;;;;;;;;;;;;;;16.47;54.93;99865.66;5356405;26;2753;-54
2024/04/16 09:32:35;;;;;;;;;;;;;;;16.45;54.80;99871.41;5356224;26;1422;-55
2024/04/16 09:35:00;;;;;;;;;;;;;;;16.35;54.90;99866.88;5356136;26;1292;-53
2024/04/16 09:37:26;;;;;;;;;;;;;;;16.34;54.97;99862.53;5356459;26;1211;-53
2024/04/16 09:39:52;;;;;;;;;;;;;;;16.21;55.32;99858.56;5357143;26;1823;-52
2024/04/16 09:42:18;;;;;;;;;;;;;;;16.23;55.15;99850.84;5356536;26;1121;-57
2024/04/16 09:44:43;;;;;;;;;;;;;;;16.23;55.09;99858.28;5319673;26;1263;-53
2024/04/16 09:47:09;;;;;;;;;;;;;;;16.14;55.28;99852.59;5325634;26;1419;-53
2024/04/16 09:49:34;;;;;;;;;;;;;;;16.18;55.00;99852.84;5326303;26;1188;-53
2024/04/16 09:52:02;;;;;;;;;;;;;;;16.19;54.98;99847.06;5356420;26;1244;-56
2024/04/16 09:54:27;;;;;;;;;;;;;;;17.32;53.29;99830.06;5319791;27;1212;-52
2024/04/16 09:56:53;;;;;;;;;;;;;;;17.49;52.65;99841.31;5321803;26;1289;-54
2024/04/16 09:59:18;;;;;;;;;;;;;;;16.91;54.21;99837.03;5355916;26;2939;-53
2024/04/16 10:01:44;;;;;;;;;;;;;;;16.80;54.50;99835.53;5356204;26;1425;-52
2024/04/16 10:04:10;;;;;;;;;;;;;;;16.66;54.77;99843.69;5326327;26;1168;-55
2024/04/16 10:06:36;;;;;;;;;;;;;;;16.48;55.16;99837.09;5355906;26;1092;-48
2024/04/16 10:09:01;;;;;;;;;;;;;;;16.54;54.85;99833.19;5355626;26;1129;-54
2024/04/16 10:11:30;;;;;;;;;;;;;;;16.54;54.87;99841.41;5355715;26;1311;-53
2024/04/16 10:13:56;;;;;;;;;;;;;;;16.50;54.94;99832.94;5355715;26;1136;-53
2024/04/16 10:16:52;;;;;;;;;;;;;;;16.42;54.91;99837.19;5355715;26;1136;-53
2024/04/16 10:19:43;;;;;;;;;;;;;;;16.31;55.19;99841.16;5354805;26;1830;-55
2024/04/16 10:22:11;;;;;;;;;;;;;;;16.30;55.18;99828.56;5355800;26;1160;-55
2024/04/16 10:24:37;;;;;;;;;;;;;;;16.22;55.32;99827.28;5354711;26;1309;-50
2024/04/16 10:27:25;;;;;;;;;;;;;;;16.25;55.12;99828.63;5353841;26;1237;-51
2024/04/16 10:30:24;;;;;;;;;;;;;;;16.19;55.35;99821.56;6245490;21;9586;-50
2024/04/16 10:36:38;;;;;;;;;;;;;;;16.09;55.42;99817.03;5386641;26;1163;-49
2024/04/16 10:42:26;;;;;;;;;;;;;;;17.70;52.51;99817.00;5371265;26;1069;-50
2024/04/16 10:45:28;;;;;;;;;;;;;;;17.13;53.68;99810.88;5386493;26;1135;-47
2024/04/16 10:48:25;;;;;;;;;;;;;;;16.72;54.88;99812.34;5382151;26;1596;-51
2024/04/16 10:50:50;;;;;;;;;;;;;;;16.60;55.02;99799.03;5356272;26;1304;-50
2024/04/16 10:53:41;;;;;;;;;;;;;;;16.55;55.00;99793.63;5386679;26;1321;-47
2024/04/16 10:56:37;;;;;;;;;;;;;;;16.52;55.08;99791.47;5366856;26;1263;-51
2024/04/16 11:03:28;;;;;;;;;;;;;;;16.39;55.27;99791.09;5381946;26;1537;-51
2024/04/16 11:06:26;;;;;;;;;;;;;;;16.34;55.28;99802.16;5377719;26;2070;-52
2024/04/16 11:09:29;;;;;;;;;;;;;;;16.32;55.16;99798.91;5386654;26;1129;-52
2024/04/16 11:12:11;;;;;;;;;;;;;;;16.29;55.11;99791.25;5386187;26;1318;-49
2024/04/16 11:14:43;;;;;;;;;;;;;;;16.21;55.26;99769.97;5385977;26;1234;-48
2024/04/16 11:17:39;;;;;;;;;;;;;;;16.30;55.00;99765.47;5355928;26;1197;-51
2024/04/16 11:20:27;;;;;;;;;;;;;;;16.12;55.44;99766.25;5385341;26;1835;-51
2024/04/16 11:22:52;;;;;;;;;;;;;;;16.20;55.13;99760.09;5385773;26;1208;-52
2024/04/16 11:28:59;;;;;;;;;;;;;;;17.58;52.77;99767.19;5386538;26;1240;-48
2024/04/16 11:31:59;;;;;;;;;;;;;;;17.16;53.83;99763.59;5376942;26;1607;-48
2024/04/16 11:34:57;;;;;;;;;;;;;;;16.86;54.56;99752.78;5385569;26;1293;-47
2024/04/16 11:37:55;;;;;;;;;;;;;;;16.63;55.01;99751.78;5384384;26;1119;-47
2024/04/16 11:44:01;;;;;;;;;;;;;;;16.51;55.30;99740.44;5385889;26;1097;-50
2024/04/16 11:47:00;;;;;;;;;;;;;;;16.41;55.23;99725.78;5385697;26;1392;-50
2024/04/16 11:49:26;;;;;;;;;;;;;;;16.39;55.48;99724.44;5385241;26;1248;-50
2024/04/16 11:52:07;;;;;;;;;;;;;;;16.39;55.37;99722.50;5385741;26;1346;-47
2024/04/16 11:55:10;;;;;;;;;;;;;;;16.36;55.46;99725.84;5363394;26;1295;-51
2024/04/16 11:58:09;;;;;;;;;;;;;;;16.33;55.32;99722.91;5384037;26;1220;-50
2024/04/16 12:01:15;;;;;;;;;;;;;;;16.30;55.34;99727.06;5385375;26;1136;-51
2024/04/16 12:04:15;;;;;;;;;;;;;;;16.25;55.52;99727.13;5383936;26;1623;-51
2024/04/16 12:07:09;;;;;;;;;;;;;;;16.28;55.26;99726.53;5362787;26;1148;-53
2024/04/16 12:10:10;;;;;;;;;;;;;;;16.18;55.56;99712.97;5354773;26;1240;-49
2024/04/16 12:13:13;;;;;;;;;;;;;;;16.19;55.45;99720.09;5379713;26;1524;-50
2024/04/16 12:15:42;;;;;;;;;;;;;;;16.18;55.19;99713.78;5378176;26;1512;-54
2024/04/16 12:18:32;;;;;;;;;;;;;;;16.12;55.55;99705.91;5397947;26;1251;-52
2024/04/16 12:21:19;;;;;;;;;;;;;;;16.15;55.37;99716.31;5389802;26;1124;-51
2024/04/16 12:23:50;;;;;;;;;;;;;;;16.10;55.52;99708.16;5385914;26;1347;-52
2024/04/16 12:26:37;;;;;;;;;;;;;;;16.05;55.57;99709.06;5384155;26;1212;-54
2024/04/16 12:29:04;;;;;;;;;;;;;;;16.11;55.53;99704.31;5385990;26;1148;-53
2024/04/16 12:31:45;;;;;;;;;;;;;;;16.11;55.53;99707.03;5384613;26;1468;-52
2024/04/16 12:34:16;;;;;;;;;;;;;;;17.35;53.64;99712.13;5385846;26;1195;-49
2024/04/16 12:37:17;;;;;;;;;;;;;;;17.44;53.59;99707.53;5385088;26;1177;-49
2024/04/16 12:40:10;;;;;;;;;;;;;;;16.80;55.09;99699.06;5374245;26;1853;-48
2024/04/16 12:46:17;;;;;;;;;;;;;;;16.52;55.58;99684.47;5349768;26;1378;-50
2024/04/16 12:49:20;;;;;;;;;;;;;;;16.48;55.54;99686.16;5384828;26;1394;-52
2024/04/16 12:55:11;;;;;;;;;;;;;;;16.38;55.63;99695.38;5378623;26;1491;-53
2024/04/16 12:57:36;;;;;;;;;;;;;;;16.38;55.48;99687.97;5384228;26;1540;-49
2024/04/16 13:00:17;;;;;;;;;;;;;;;16.31;55.60;99690.25;5383383;26;1829;-49
2024/04/16 13:03:15;;;;;;;;;;;;;;;16.30;55.47;99696.88;5384842;26;1184;-48
2024/04/16 13:05:41;;;;;;;;;;;;;;;16.27;55.48;99689.25;5383955;26;1219;-50
2024/04/16 13:08:07;;;;;;;;;;;;;;;16.28;55.45;99692.81;5383776;26;1188;-51
2024/04/16 13:10:34;;;;;;;;;;;;;;;16.25;55.48;99705.19;5384805;26;1186;-51
2024/04/16 13:13:00;;;;;;;;;;;;;;;16.17;55.71;99697.63;5353334;26;1205;-51
2024/04/16 13:15:25;;;;;;;;;;;;;;;16.17;55.59;99689.38;5384872;26;1204;-48
2024/04/16 13:17:52;;;;;;;;;;;;;;;16.17;55.53;99692.13;5383996;26;1275;-50
2024/04/16 13:20:18;;;;;;;;;;;;;;;16.10;55.62;99692.50;5385050;26;1860;-49
2024/04/16 13:22:46;;;;;;;;;;;;;;;16.11;55.71;99693.34;5383752;26;1241;-46
2024/04/16 13:25:11;;;;;;;;;;;;;;;16.14;55.56;99687.25;5383249;26;1219;-50
2024/04/16 13:27:37;;;;;;;;;;;;;;;16.08;55.68;99684.56;5384047;26;1196;-50
2024/04/16 13:30:03;;;;;;;;;;;;;;;16.03;55.66;99684.66;5384433;26;1226;-46
2024/04/16 13:32:28;;;;;;;;;;;;;;;16.05;55.66;99679.69;5384276;26;1399;-51
2024/04/16 13:34:55;;;;;;;;;;;;;;;17.28;53.97;99681.50;5383433;26;1641;-47